Time;durP1;ratioP1;P1;durP2;ratioP2;P2;SDS_P1;SDS_P2;PMS_P1;PMS_P2;Temp;Humidity;BMP_temperature;BMP_pressure;BME280_temperature;BME280_humidity;BME280_pressure;Samples;Min_cycle;Max_cycle;Signal;HPM_P1;HPM_P2
2022/08/07 00:01:41;;;;;;;20.40;12.00;;;;;;;16.27;100.00;96104.50;5041051;28;20037;-75
2022/08/07 00:04:07;;;;;;;20.27;11.23;;;;;;;16.21;100.00;96102.25;5045657;28;20043;-75
2022/08/07 00:06:32;;;;;;;16.58;10.38;;;;;;;16.22;100.00;96101.13;5052597;28;20041;-75
2022/08/07 00:08:58;;;;;;;17.77;10.77;;;;;;;16.18;100.00;96108.13;5036018;28;20095;-75
2022/08/07 00:11:23;;;;;;;20.80;10.68;;;;;;;16.21;100.00;96103.03;5043188;28;20114;-74
2022/08/07 00:13:49;;;;;;;17.33;10.70;;;;;;;16.15;100.00;96106.84;5045783;28;20044;-75
2022/08/07 00:16:14;;;;;;;17.27;10.23;;;;;;;16.14;100.00;96101.81;5040552;28;20091;-75
2022/08/07 00:18:43;;;;;;;15.52;9.15;;;;;;;16.25;100.00;96108.56;5045080;28;20048;-74
2022/08/07 00:21:09;;;;;;;16.38;9.45;;;;;;;16.16;100.00;96105.78;5044449;28;20068;-74
2022/08/07 00:23:37;;;;;;;14.45;8.57;;;;;;;16.15;100.00;96104.19;5044546;28;20046;-74
2022/08/07 00:26:05;;;;;;;18.83;8.68;;;;;;;16.20;100.00;96105.97;5048856;28;20041;-74
2022/08/07 00:28:31;;;;;;;15.57;9.15;;;;;;;16.08;100.00;96099.25;5047276;28;20075;-74
2022/08/07 00:30:57;;;;;;;14.18;9.15;;;;;;;15.98;100.00;96104.72;5046662;28;20073;-74
2022/08/07 00:33:27;;;;;;;13.00;8.13;;;;;;;16.14;100.00;96113.22;5040934;28;20041;-74
2022/08/07 00:35:55;;;;;;;19.05;8.75;;;;;;;16.07;100.00;96107.50;5041170;28;20049;-76
2022/08/07 00:38:21;;;;;;;13.82;7.97;;;;;;;16.04;100.00;96108.84;5050291;28;20040;-75
2022/08/07 00:40:47;;;;;;;20.95;8.38;;;;;;;16.07;100.00;96102.97;5038349;28;20094;-75
2022/08/07 00:43:13;;;;;;;13.43;7.93;;;;;;;15.97;100.00;96097.03;5043362;28;20040;-75
2022/08/07 00:45:39;;;;;;;15.10;7.65;;;;;;;16.16;100.00;96097.00;5047503;28;20044;-75
2022/08/07 00:48:06;;;;;;;12.45;8.02;;;;;;;16.06;100.00;96096.09;5050340;28;20064;-75
2022/08/07 00:50:32;;;;;;;15.05;7.95;;;;;;;15.95;100.00;96084.06;5039171;28;20038;-75
2022/08/07 00:52:57;;;;;;;12.27;7.35;;;;;;;15.98;100.00;96091.44;5040159;28;20091;-75
2022/08/07 00:55:23;;;;;;;12.95;7.40;;;;;;;15.97;100.00;96092.50;5040570;28;20242;-75
2022/08/07 00:57:50;;;;;;;11.13;7.40;;;;;;;16.05;100.00;96089.19;5049097;28;20041;-74
2022/08/07 01:00:17;;;;;;;10.38;7.10;;;;;;;15.97;100.00;96081.91;5041714;28;20041;-74
2022/08/07 01:02:44;;;;;;;17.13;7.00;;;;;;;16.04;100.00;96082.31;5033790;28;20496;-74
2022/08/07 01:05:10;;;;;;;12.38;7.50;;;;;;;15.99;100.00;96085.06;5038694;28;20049;-74
2022/08/07 01:07:36;;;;;;;10.68;7.03;;;;;;;15.95;100.00;96081.41;5040914;28;20056;-74
2022/08/07 01:10:02;;;;;;;9.45;6.93;;;;;;;15.88;100.00;96078.34;5044203;28;20112;-75
2022/08/07 01:12:28;;;;;;;10.60;6.60;;;;;;;15.87;100.00;96076.75;5039059;28;20484;-75
2022/08/07 01:14:56;;;;;;;10.82;7.10;;;;;;;15.85;100.00;96076.25;5042910;28;20041;-75
2022/08/07 01:17:22;;;;;;;10.73;6.95;;;;;;;15.75;100.00;96075.28;5047377;28;20041;-75
2022/08/07 01:19:48;;;;;;;11.38;6.90;;;;;;;15.80;100.00;96082.41;5033840;28;20525;-75
2022/08/07 01:22:15;;;;;;;10.15;6.38;;;;;;;15.81;100.00;96072.59;5038324;28;20045;-75
2022/08/07 01:24:41;;;;;;;10.10;6.10;;;;;;;15.79;100.00;96074.75;5044363;28;20144;-75
2022/08/07 01:27:08;;;;;;;9.63;6.50;;;;;;;15.74;100.00;96068.41;5045860;28;20045;-75
2022/08/07 01:29:33;;;;;;;8.45;6.10;;;;;;;15.71;100.00;96062.91;5040401;28;20040;-75
2022/08/07 01:31:59;;;;;;;9.82;6.47;;;;;;;15.74;100.00;96068.41;5046290;28;20041;-75
2022/08/07 01:34:30;;;;;;;10.75;6.30;;;;;;;15.78;100.00;96068.63;5040595;28;20043;-75
2022/08/07 01:36:56;;;;;;;11.73;6.25;;;;;;;15.76;100.00;96066.25;5046780;28;20449;-74
2022/08/07 01:39:21;;;;;;;13.18;6.22;;;;;;;15.72;100.00;96065.25;5041024;28;20082;-75
2022/08/07 01:41:47;;;;;;;9.90;6.30;;;;;;;15.83;100.00;96059.81;5038015;28;20116;-74
2022/08/07 01:44:14;;;;;;;11.27;6.90;;;;;;;15.73;100.00;96061.53;5036715;28;20057;-75
2022/08/07 01:46:40;;;;;;;9.23;6.50;;;;;;;15.70;100.00;96062.13;5046760;28;20037;-75
2022/08/07 01:49:05;;;;;;;14.45;6.47;;;;;;;15.63;100.00;96061.69;5037928;28;20048;-75
2022/08/07 01:51:31;;;;;;;9.13;6.20;;;;;;;15.79;100.00;96064.13;5035636;28;20045;-74
2022/08/07 01:54:01;;;;;;;11.45;6.68;;;;;;;15.61;100.00;96057.75;5046177;28;20063;-75
2022/08/07 01:56:38;;;;;;;11.15;5.80;;;;;;;15.65;100.00;96056.88;5045671;28;20056;-74
2022/08/07 01:59:10;;;;;;;10.70;5.60;;;;;;;15.63;100.00;96048.44;5037063;28;20056;-75
2022/08/07 02:01:44;;;;;;;10.30;5.80;;;;;;;15.65;100.00;96048.91;5041736;28;20075;-75
2022/08/07 02:04:17;;;;;;;8.65;5.55;;;;;;;15.71;100.00;96046.97;5036523;28;20045;-75
2022/08/07 02:06:44;;;;;;;7.05;5.28;;;;;;;15.62;100.00;96048.72;5042329;28;20045;-74
2022/08/07 02:09:13;;;;;;;10.25;5.78;;;;;;;15.59;100.00;96047.41;5041497;28;20128;-74
2022/08/07 02:11:44;;;;;;;9.85;5.85;;;;;;;15.67;100.00;96046.75;5042516;28;20055;-74
2022/08/07 02:14:13;;;;;;;9.02;5.70;;;;;;;15.58;100.00;96038.66;5040834;28;20048;-74
2022/08/07 02:16:40;;;;;;;8.50;5.65;;;;;;;15.61;100.00;96042.59;5043444;28;20515;-74
2022/08/07 02:19:10;;;;;;;8.40;6.05;;;;;;;15.51;100.00;96048.06;5045976;28;20040;-74
2022/08/07 02:21:40;;;;;;;9.60;5.70;;;;;;;15.59;100.00;96044.78;5037249;28;20038;-74
2022/08/07 02:24:07;;;;;;;9.95;6.03;;;;;;;15.63;100.00;96043.13;5041032;28;20531;-74
2022/08/07 02:26:37;;;;;;;10.85;6.40;;;;;;;15.54;100.00;96042.19;5038016;28;20045;-74
2022/08/07 02:29:05;;;;;;;9.95;6.18;;;;;;;15.49;100.00;96034.31;5036119;28;20443;-74
2022/08/07 02:31:32;;;;;;;11.68;6.43;;;;;;;15.52;100.00;96033.72;5041563;28;20037;-75
2022/08/07 02:34:00;;;;;;;12.45;6.20;;;;;;;15.52;100.00;96026.56;5046636;28;20045;-75
2022/08/07 02:36:27;;;;;;;8.20;5.15;;;;;;;15.51;100.00;96026.84;5043189;28;20053;-75
2022/08/07 02:38:55;;;;;;;7.70;5.55;;;;;;;15.48;100.00;96032.72;5034720;28;20048;-75
2022/08/07 02:41:22;;;;;;;9.43;5.72;;;;;;;15.47;100.00;96031.16;5043050;28;20041;-75
2022/08/07 02:43:49;;;;;;;9.60;5.40;;;;;;;15.50;100.00;96030.56;5041930;28;20037;-74
2022/08/07 02:46:18;;;;;;;9.35;5.38;;;;;;;15.64;100.00;96026.09;5040329;28;20119;-75
2022/08/07 02:48:44;;;;;;;7.65;5.45;;;;;;;15.50;100.00;96019.97;5036533;28;20041;-75
2022/08/07 02:51:13;;;;;;;9.38;5.35;;;;;;;15.34;100.00;96020.19;5038677;28;20049;-75
2022/08/07 02:53:41;;;;;;;8.50;5.30;;;;;;;15.35;100.00;96024.41;5037360;28;20038;-75
2022/08/07 02:56:11;;;;;;;7.82;5.03;;;;;;;15.36;100.00;96020.69;5046357;28;20060;-75
2022/08/07 02:58:39;;;;;;;8.10;5.05;;;;;;;15.47;100.00;96025.84;5037650;28;20037;-75
2022/08/07 03:01:06;;;;;;;6.95;4.55;;;;;;;15.48;100.00;96022.91;5039103;28;20077;-75
2022/08/07 03:03:33;;;;;;;8.20;4.60;;;;;;;15.44;100.00;96026.41;5046946;28;20049;-75
2022/08/07 03:06:01;;;;;;;8.23;4.97;;;;;;;15.38;100.00;96021.16;5042077;28;20108;-74
2022/08/07 03:08:27;;;;;;;6.70;5.20;;;;;;;15.38;100.00;96021.16;5043583;28;20044;-74
2022/08/07 03:10:54;;;;;;;11.75;5.63;;;;;;;15.29;100.00;96022.13;5034595;28;20045;-74
2022/08/07 03:13:20;;;;;;;10.50;5.38;;;;;;;15.34;100.00;96016.75;5036277;28;20052;-75
2022/08/07 03:15:46;;;;;;;9.32;5.57;;;;;;;15.30;100.00;96024.50;5042263;28;20036;-74
2022/08/07 03:18:14;;;;;;;8.88;5.38;;;;;;;15.20;100.00;96017.47;5040290;28;20048;-74
2022/08/07 03:20:40;;;;;;;8.32;5.88;;;;;;;15.26;100.00;96023.47;5045491;28;20041;-75
2022/08/07 03:23:06;;;;;;;10.50;6.38;;;;;;;15.21;100.00;96023.53;5043505;28;20443;-75
2022/08/07 03:25:36;;;;;;;9.88;6.40;;;;;;;15.23;100.00;96021.41;5039669;28;20068;-74
2022/08/07 03:28:03;;;;;;;9.80;5.97;;;;;;;15.28;100.00;96023.97;5047025;28;20037;-74
2022/08/07 03:30:30;;;;;;;12.68;6.10;;;;;;;15.19;100.00;96036.31;5041141;28;20049;-75
2022/08/07 03:32:58;;;;;;;9.45;6.07;;;;;;;15.14;100.00;96023.09;5044376;28;20037;-74
2022/08/07 03:35:26;;;;;;;8.25;6.03;;;;;;;15.22;100.00;96027.78;5044428;28;20042;-74
2022/08/07 03:38:03;;;;;;;8.70;5.90;;;;;;;15.16;100.00;96023.63;5045241;28;20112;-74
2022/08/07 03:40:30;;;;;;;8.43;5.88;;;;;;;15.16;100.00;96020.97;5030507;28;20049;-74
2022/08/07 03:42:55;;;;;;;10.38;5.68;;;;;;;15.22;100.00;96019.81;5043179;28;20060;-74
2022/08/07 03:45:23;;;;;;;9.52;5.80;;;;;;;15.13;100.00;96032.13;5036203;28;20087;-75
2022/08/07 03:47:50;;;;;;;10.88;6.30;;;;;;;15.10;100.00;96033.50;5035322;28;20518;-74
2022/08/07 03:50:18;;;;;;;7.82;5.22;;;;;;;15.10;100.00;96024.75;5041636;28;20099;-75
2022/08/07 03:52:46;;;;;;;8.55;6.15;;;;;;;15.02;100.00;96026.97;5046433;28;20052;-75
2022/08/07 03:55:12;;;;;;;9.32;6.20;;;;;;;15.00;100.00;96023.81;5045040;28;20044;-74
2022/08/07 03:57:38;;;;;;;10.27;6.32;;;;;;;14.90;100.00;96016.00;5044754;28;20048;-75
2022/08/07 04:00:05;;;;;;;10.57;6.55;;;;;;;14.97;100.00;96008.50;5046535;28;20487;-75
2022/08/07 04:02:31;;;;;;;10.10;6.35;;;;;;;14.95;100.00;96015.91;5042686;28;20048;-75
2022/08/07 04:04:56;;;;;;;11.30;6.88;;;;;;;14.98;100.00;96010.06;5040230;28;20041;-75
2022/08/07 04:07:22;;;;;;;9.35;6.65;;;;;;;14.89;100.00;96007.25;5042811;28;20037;-75
2022/08/07 04:09:49;;;;;;;9.50;6.80;;;;;;;14.93;100.00;96011.97;5041098;28;20037;-75
2022/08/07 04:12:15;;;;;;;9.68;6.80;;;;;;;14.93;100.00;96012.78;5043948;28;20490;-75
2022/08/07 04:14:42;;;;;;;9.30;6.68;;;;;;;14.97;100.00;96013.78;5061903;28;20451;-75
2022/08/07 04:17:08;;;;;;;11.23;6.95;;;;;;;14.97;100.00;96019.09;5052690;28;20049;-75
2022/08/07 04:19:34;;;;;;;9.10;6.70;;;;;;;14.91;100.00;96017.56;5046397;28;20498;-76
2022/08/07 04:22:00;;;;;;;8.75;6.75;;;;;;;14.99;100.00;96016.94;5050655;28;20041;-75
2022/08/07 04:24:26;;;;;;;8.25;6.38;;;;;;;15.05;100.00;96015.78;5035919;28;20044;-75
2022/08/07 04:26:52;;;;;;;9.60;7.05;;;;;;;14.96;100.00;96020.16;5044266;28;20037;-75
2022/08/07 04:29:17;;;;;;;10.90;6.75;;;;;;;14.88;100.00;96016.28;5042712;28;20407;-75
2022/08/07 04:31:43;;;;;;;9.07;6.43;;;;;;;14.89;100.00;96017.06;5039838;28;20048;-75
2022/08/07 04:34:09;;;;;;;10.75;6.38;;;;;;;15.00;100.00;96017.75;5044594;28;20040;-75
2022/08/07 04:36:35;;;;;;;9.23;7.13;;;;;;;14.91;100.00;96020.22;5048851;28;20115;-75
2022/08/07 04:39:01;;;;;;;9.63;6.55;;;;;;;14.86;100.00;96020.28;5045164;28;20049;-75
2022/08/07 04:41:27;;;;;;;11.00;6.95;;;;;;;14.93;100.00;96020.72;5038845;28;20064;-75
2022/08/07 04:43:54;;;;;;;14.82;6.70;;;;;;;14.92;100.00;96027.09;5041399;28;20504;-75
2022/08/07 04:46:37;;;;;;;11.15;6.75;;;;;;;14.98;100.00;96025.16;5048631;28;20564;-75
2022/08/07 04:49:17;;;;;;;12.75;6.47;;;;;;;14.93;100.00;96018.09;5047397;28;20151;-75
2022/08/07 04:52:11;;;;;;;10.07;6.50;;;;;;;14.88;100.00;96023.44;5038204;28;20102;-74
2022/08/07 04:54:51;;;;;;;10.95;6.90;;;;;;;14.85;100.00;96022.13;5046819;28;20045;-75
2022/08/07 04:57:24;;;;;;;8.50;5.75;;;;;;;15.01;100.00;96022.75;5043029;28;20037;-74
2022/08/07 05:00:04;;;;;;;9.95;6.35;;;;;;;15.00;100.00;96018.53;5038864;28;20048;-75
2022/08/07 05:03:03;;;;;;;10.07;6.18;;;;;;;15.04;100.00;96024.84;5041218;28;20042;-75
2022/08/07 05:05:39;;;;;;;11.18;6.30;;;;;;;15.14;100.00;96025.75;5040201;28;20047;-75
2022/08/07 05:08:17;;;;;;;8.00;5.90;;;;;;;15.04;100.00;96024.84;5035157;28;20423;-75
2022/08/07 05:10:49;;;;;;;12.55;6.20;;;;;;;15.07;100.00;96020.84;5045844;28;20052;-75
2022/08/07 05:13:18;;;;;;;12.13;5.82;;;;;;;15.01;100.00;96017.47;5045729;28;20178;-75
2022/08/07 05:15:48;;;;;;;10.77;6.35;;;;;;;15.02;100.00;96021.66;5044707;28;20041;-75
2022/08/07 05:18:19;;;;;;;9.27;5.97;;;;;;;15.11;100.00;96023.69;5039834;28;20041;-75
2022/08/07 05:20:55;;;;;;;9.55;5.72;;;;;;;15.06;100.00;96014.72;5039516;28;20628;-75
2022/08/07 05:24:00;;;;;;;9.30;5.53;;;;;;;15.09;100.00;96025.84;5046221;28;20048;-75
2022/08/07 05:26:30;;;;;;;11.05;5.25;;;;;;;15.22;100.00;96019.81;5041494;28;20044;-75
2022/08/07 05:28:57;;;;;;;8.75;5.50;;;;;;;15.15;100.00;96020.16;5040135;28;20103;-75
2022/08/07 05:31:28;;;;;;;10.32;5.43;;;;;;;15.17;100.00;96027.84;5046544;28;20037;-75
2022/08/07 05:33:55;;;;;;;8.23;5.50;;;;;;;15.19;100.00;96025.69;5044309;28;20037;-75
2022/08/07 05:36:22;;;;;;;7.47;5.18;;;;;;;15.25;100.00;96019.25;5045625;28;20072;-75
2022/08/07 05:38:50;;;;;;;7.03;5.03;;;;;;;15.27;100.00;96022.41;5048948;28;20045;-75
2022/08/07 05:41:16;;;;;;;7.28;5.20;;;;;;;15.32;100.00;96024.97;5036104;28;20041;-74
2022/08/07 05:43:47;;;;;;;9.90;5.28;;;;;;;15.35;100.00;96023.63;5043335;28;20091;-76
2022/08/07 05:46:15;;;;;;;8.15;5.25;;;;;;;15.45;100.00;96028.00;5046808;28;20494;-76
2022/08/07 05:48:41;;;;;;;6.78;4.43;;;;;;;15.57;100.00;96028.34;5057396;28;20047;-76
2022/08/07 05:51:08;;;;;;;6.13;4.28;;;;;;;15.53;100.00;96024.69;5053322;28;20047;-75
2022/08/07 05:53:34;;;;;;;8.52;4.90;;;;;;;15.54;100.00;96031.56;5053095;28;20106;-76
2022/08/07 05:56:01;;;;;;;5.70;4.28;;;;;;;15.61;100.00;96029.34;5057977;28;20120;-74
2022/08/07 05:58:28;;;;;;;8.52;4.55;;;;;;;15.55;100.00;96022.53;5048679;28;20052;-75
2022/08/07 06:00:56;;;;;;;6.75;4.90;;;;;;;15.46;100.00;96029.56;5055436;28;20032;-75
2022/08/07 06:03:23;;;;;;;6.75;4.60;;;;;;;15.44;100.00;96026.41;5052450;28;20052;-75
2022/08/07 06:05:51;;;;;;;7.00;4.78;;;;;;;15.51;100.00;96032.16;5047386;28;20041;-75
2022/08/07 06:08:16;;;;;;;6.85;4.40;;;;;;;15.49;100.00;96029.78;5048918;28;20138;-75
2022/08/07 06:10:43;;;;;;;8.00;4.85;;;;;;;15.54;100.00;96031.56;5047217;28;20048;-75
2022/08/07 06:13:09;;;;;;;8.88;4.35;;;;;;;15.54;100.00;96028.91;5038461;28;20422;-75
2022/08/07 06:15:35;;;;;;;5.60;4.18;;;;;;;15.70;100.00;96035.59;5048366;28;20044;-75
2022/08/07 06:18:02;;;;;;;7.53;4.53;;;;;;;15.66;100.00;96029.28;5046990;28;20045;-75
2022/08/07 06:20:29;;;;;;;7.30;4.63;;;;;;;15.66;100.00;96034.59;5044775;28;20067;-74
2022/08/07 06:22:56;;;;;;;7.57;4.53;;;;;;;15.67;100.00;96020.22;5051649;28;20045;-76
2022/08/07 06:25:21;;;;;;;7.03;4.07;;;;;;;15.77;100.00;96025.38;5048901;28;20106;-74
2022/08/07 06:27:48;;;;;;;7.13;3.90;;;;;;;15.85;100.00;96017.88;5049611;28;20033;-75
2022/08/07 06:30:14;;;;;;;6.78;4.28;;;;;;;15.85;100.00;96020.53;5054656;28;20620;-77
2022/08/07 06:32:39;;;;;;;8.82;4.57;;;;;;;15.95;100.00;96020.34;5045641;28;20040;-75
2022/08/07 06:35:05;;;;;;;8.13;4.00;;;;;;;15.95;100.00;96025.66;5049358;28;20037;-78
2022/08/07 06:37:31;;;;;;;7.57;4.00;;;;;;;15.98;100.00;96025.06;5051083;28;20103;-76
2022/08/07 06:39:56;;;;;;;5.22;3.40;;;;;;;16.07;100.00;96025.97;5050670;28;20045;-76
2022/08/07 06:42:36;;;;;;;5.68;3.63;;;;;;;16.18;100.00;96028.47;5059483;28;20052;-78
2022/08/07 06:45:08;;;;;;;5.47;3.95;;;;;;;16.23;100.00;96025.72;5055399;28;20581;-77
2022/08/07 06:47:33;;;;;;;7.03;3.97;;;;;;;16.28;100.00;96044.22;5050875;28;20036;-77
2022/08/07 06:49:59;;;;;;;5.15;3.20;;;;;;;16.30;100.00;96020.81;5053800;28;20033;-78
2022/08/07 06:52:31;;;;;;;4.80;3.58;;;;;;;16.37;100.00;96031.84;5039888;28;20143;-76
2022/08/07 06:54:59;;;;;;;6.60;4.07;;;;;;;16.43;100.00;96036.00;5051603;28;20861;-76
2022/08/07 06:57:28;;;;;;;8.60;3.72;;;;;;;16.41;100.00;96032.81;5044670;28;20102;-77
2022/08/07 06:59:54;;;;;;;5.60;3.88;;;;;;;16.57;100.00;96035.22;5048815;28;20041;-76
2022/08/07 07:02:24;;;;;;;7.57;3.80;;;;;;;16.66;100.00;96025.47;5053031;28;20107;-78
2022/08/07 07:04:50;;;;;;;5.60;3.88;;;;;;;16.75;100.00;96014.91;5058499;28;20048;-76
2022/08/07 07:07:15;;;;;;;6.13;3.53;;;;;;;16.86;100.00;96024.28;5051328;28;20041;-76
2022/08/07 07:09:48;;;;;;;4.55;3.35;;;;;;;16.82;100.00;96025.94;5047864;28;20094;-77
2022/08/07 07:12:42;;;;;;;7.40;3.50;;;;;;;16.99;100.00;96024.59;5052278;28;20048;-77
2022/08/07 07:15:19;;;;;;;4.13;3.30;;;;;;;17.10;100.00;96021.41;5052279;28;20037;-77
2022/08/07 07:18:04;;;;;;;8.70;3.10;;;;;;;17.32;100.00;96027.88;5050595;28;20076;-78
2022/08/07 07:20:44;;;;;;;4.82;3.10;;;;;;;17.41;100.00;96031.41;5052282;28;20115;-77
2022/08/07 07:23:10;;;;;;;7.10;3.38;;;;;;;17.44;100.00;96022.03;5044959;28;20055;-77
2022/08/07 07:25:39;;;;;;;6.40;3.10;;;;;;;17.57;100.00;96020.41;5057758;28;20045;-78
2022/08/07 07:28:23;;;;;;;4.47;3.05;;;;;;;17.56;97.90;96016.97;5057321;28;20040;-76
2022/08/07 07:30:58;;;;;;;4.72;3.08;;;;;;;17.70;99.84;96022.25;5056980;28;20162;-76
2022/08/07 07:33:27;;;;;;;4.43;2.85;;;;;;;17.75;96.00;96014.13;5044557;28;20550;-83
2022/08/07 07:35:54;;;;;;;4.68;2.80;;;;;;;17.80;95.41;96014.00;5048231;28;20047;-84
2022/08/07 07:38:22;;;;;;;4.28;3.00;;;;;;;17.92;94.14;96018.03;5049298;28;20045;-84
2022/08/07 07:40:49;;;;;;;4.88;2.78;;;;;;;17.79;93.50;96015.09;5044133;28;20060;-75
2022/08/07 07:43:17;;;;;;;4.57;2.75;;;;;;;17.83;92.86;96005.41;5054023;28;20721;-75
2022/08/07 07:45:45;;;;;;;5.07;2.95;;;;;;;17.81;93.24;96009.47;5057314;28;20107;-75
2022/08/07 07:48:15;;;;;;;6.50;3.00;;;;;;;17.80;90.71;96008.69;5052838;28;20049;-76
2022/08/07 07:50:41;;;;;;;5.28;2.88;;;;;;;17.96;95.74;96013.69;5050862;28;20071;-77
2022/08/07 07:53:08;;;;;;;5.90;3.22;;;;;;;18.05;91.77;96003.84;5061663;28;20048;-76
2022/08/07 07:55:34;;;;;;;4.90;3.20;;;;;;;17.93;90.90;96008.94;5061369;28;20040;-76
2022/08/07 07:58:01;;;;;;;8.88;2.92;;;;;;;17.90;89.11;96004.19;5053577;28;20037;-78
2022/08/07 08:00:28;;;;;;;4.75;3.22;;;;;;;18.03;91.85;96014.03;5055115;28;20120;-76
2022/08/07 08:02:58;;;;;;;4.35;2.80;;;;;;;18.17;92.10;96013.94;5056088;28;20494;-76
2022/08/07 08:05:23;;;;;;;5.15;2.90;;;;;;;18.11;93.32;95997.28;5060451;28;20033;-76
2022/08/07 08:07:49;;;;;;;4.50;3.10;;;;;;;18.36;90.96;95995.06;5052101;28;20478;-76
2022/08/07 08:10:17;;;;;;;3.90;2.80;;;;;;;18.18;88.61;96010.97;5052439;28;20068;-76
2022/08/07 08:12:45;;;;;;;8.55;2.92;;;;;;;18.16;91.29;96007.81;5052614;28;20424;-75
2022/08/07 08:15:11;;;;;;;3.92;2.60;;;;;;;18.25;90.08;96004.44;5051366;28;20155;-76
2022/08/07 08:17:36;;;;;;;5.63;3.00;;;;;;;18.31;86.97;96003.19;5059844;28;20091;-78
2022/08/07 08:20:05;;;;;;;3.88;2.55;;;;;;;18.60;87.98;95993.91;5052204;28;20545;-76
2022/08/07 08:28:08;;;;;;;4.00;2.75;;;;;;;18.78;84.70;95995.53;5054909;28;20044;-77
2022/08/07 08:30:35;;;;;;;5.03;2.78;;;;;;;18.69;83.50;95994.69;5042433;28;20033;-77
2022/08/07 08:33:04;;;;;;;8.00;2.85;;;;;;;18.97;87.14;95999.81;5065418;28;20521;-76
2022/08/07 08:35:31;;;;;;;4.75;2.58;;;;;;;18.82;86.18;95996.47;5055130;28;20120;-77
2022/08/07 08:38:01;;;;;;;3.65;2.63;;;;;;;18.91;83.60;95998.41;5056618;28;20414;-76
2022/08/07 08:40:39;;;;;;;4.90;2.92;;;;;;;19.17;87.16;96001.88;5048555;28;20044;-77
2022/08/07 08:43:16;;;;;;;7.05;2.90;;;;;;;19.06;81.21;95994.50;5048441;28;20041;-80
2022/08/07 08:45:48;;;;;;;4.80;3.05;;;;;;;19.14;83.79;95991.84;5052076;28;20045;-80
2022/08/07 08:48:57;;;;;;;6.35;2.80;;;;;;;19.33;80.54;95998.78;5052561;28;20509;-77
2022/08/07 08:52:06;;;;;;;4.32;2.83;;;;;;;19.34;84.56;96000.34;5028815;28;20057;-75
2022/08/07 08:54:40;;;;;;;3.70;2.92;;;;;;;19.30;82.19;95986.06;5050172;28;20060;-76
2022/08/07 08:57:12;;;;;;;4.07;2.60;;;;;;;19.48;80.94;95990.31;5051221;28;20064;-77
2022/08/07 08:59:41;;;;;;;3.25;2.70;;;;;;;19.46;81.59;95986.38;5050903;28;20482;-76
2022/08/07 09:02:24;;;;;;;5.40;2.85;;;;;;;19.21;80.26;95991.41;5049348;28;20033;-77
2022/08/07 09:05:34;;;;;;;4.15;2.90;;;;;;;19.26;80.08;95982.44;5048392;28;20050;-77
2022/08/07 09:08:18;;;;;;;4.50;2.90;;;;;;;19.55;82.49;95985.28;5031387;28;20133;-76
2022/08/07 09:11:04;;;;;;;4.90;2.60;;;;;;;19.62;80.59;95986.66;5041519;28;20146;-77
2022/08/07 09:13:32;;;;;;;4.22;2.92;;;;;;;19.48;79.55;95990.31;5045800;28;20036;-77
2022/08/07 09:16:31;;;;;;;4.07;2.65;;;;;;;19.68;78.08;95988.06;5047844;28;20064;-78
2022/08/07 09:19:16;;;;;;;5.78;3.10;;;;;;;19.79;76.79;95993.91;5046872;28;20045;-77
2022/08/07 09:21:56;;;;;;;;;;;;;;;19.61;74.55;95998.44;5050055;28;20036;-77
2022/08/07 09:24:43;;;;;;;3.95;2.65;;;;;;;19.81;75.59;96003.19;5050115;28;19966;-77
2022/08/07 09:27:46;;;;;;;3.67;2.65;;;;;;;19.96;75.03;95990.44;5036316;28;20036;-77
2022/08/07 09:30:13;;;;;;;4.57;2.75;;;;;;;19.81;75.92;95992.50;5036663;28;20049;-77
2022/08/07 09:32:48;;;;;;;5.40;2.60;;;;;;;19.93;74.00;95986.50;5049013;28;20045;-77
2022/08/07 09:35:48;;;;;;;3.28;2.60;;;;;;;19.89;75.32;95989.00;5044860;28;20046;-77
2022/08/07 09:38:32;;;;;;;3.67;2.50;;;;;;;20.29;76.81;95996.00;5048754;28;20415;-77
2022/08/07 09:41:15;;;;;;;4.22;2.75;;;;;;;20.46;73.85;95992.47;5046109;28;20041;-77
2022/08/07 09:43:56;;;;;;;6.20;2.70;;;;;;;20.42;74.49;95984.28;5046377;28;20044;-77
2022/08/07 09:46:29;;;;;;;3.78;2.50;;;;;;;20.41;72.90;95971.25;5035300;28;20037;-77
2022/08/07 09:49:25;;;;;;;6.50;2.80;;;;;;;20.37;72.51;95975.66;5049713;28;20055;-77
2022/08/07 09:52:04;;;;;;;3.63;2.72;;;;;;;20.31;73.24;95971.63;5039087;28;20037;-77
2022/08/07 09:54:39;;;;;;;5.80;3.13;;;;;;;20.53;73.44;95974.03;5045628;28;20514;-77
2022/08/07 09:57:18;;;;;;;3.65;2.58;;;;;;;20.52;73.56;95977.03;5049693;28;20048;-77
2022/08/07 10:00:19;;;;;;;4.53;2.70;;;;;;;20.50;71.04;95964.00;5038354;28;20045;-77
2022/08/07 10:03:06;;;;;;;4.63;2.70;;;;;;;20.91;73.18;95967.88;5049133;28;20052;-77
2022/08/07 10:06:00;;;;;;;6.82;2.90;;;;;;;20.93;73.23;95963.00;5049393;28;20044;-76
2022/08/07 10:09:07;;;;;;;4.60;3.07;;;;;;;21.08;71.48;95960.84;5047332;28;20045;-77
2022/08/07 10:11:44;;;;;;;4.68;2.60;;;;;;;20.99;68.97;95968.13;5045907;28;20502;-76
2022/08/07 10:14:39;;;;;;;3.65;2.72;;;;;;;21.03;69.76;95963.69;5049110;28;20128;-77
2022/08/07 10:17:23;;;;;;;3.42;2.55;;;;;;;21.37;69.21;95956.53;5048180;28;20044;-77
2022/08/07 10:20:08;;;;;;;4.05;2.67;;;;;;;21.56;70.26;95962.19;5045558;28;20429;-76
2022/08/07 10:22:51;;;;;;;5.68;3.00;;;;;;;21.36;69.13;95954.94;5048007;28;20041;-77
2022/08/07 10:25:43;;;;;;;10.20;3.50;;;;;;;21.29;67.25;95950.91;5048561;28;20044;-77
2022/08/07 10:28:29;;;;;;;6.05;3.08;;;;;;;21.50;69.97;95950.09;5049058;28;20041;-77
2022/08/07 10:31:06;;;;;;;5.00;2.80;;;;;;;21.26;67.92;95956.94;5045333;28;20506;-77
2022/08/07 10:33:40;;;;;;;4.60;2.72;;;;;;;21.84;70.08;95952.81;5048858;28;20041;-77
2022/08/07 10:36:39;;;;;;;4.30;2.67;;;;;;;21.88;65.39;95953.72;5049252;28;20407;-77
2022/08/07 10:39:32;;;;;;;3.72;2.78;;;;;;;22.33;64.24;95946.78;5035683;28;20049;-77
2022/08/07 10:42:27;;;;;;;3.88;2.88;;;;;;;21.77;65.04;95948.00;5039052;28;20041;-77
2022/08/07 10:44:58;;;;;;;;;;;;;;;22.07;66.36;95950.53;5038533;28;20040;-77
2022/08/07 10:47:39;;;;;;;3.95;2.78;;;;;;;21.49;64.33;95948.53;5049029;28;19990;-77
2022/08/07 10:50:41;;;;;;;4.22;2.72;;;;;;;21.86;66.77;95940.66;5046771;28;20057;-77
2022/08/07 10:53:44;;;;;;;4.97;2.97;;;;;;;22.35;65.40;95944.53;5036641;28;20049;-77
2022/08/07 10:56:14;;;;;;;7.63;3.13;;;;;;;22.28;65.94;95924.41;5047535;28;20585;-77
2022/08/07 10:59:01;;;;;;;4.03;3.00;;;;;;;22.33;63.50;95944.13;5050132;28;20044;-77
2022/08/07 11:01:28;;;;;;;8.25;3.00;;;;;;;22.65;62.99;95929.78;5052813;28;20591;-77
2022/08/07 11:04:09;;;;;;;5.88;3.00;;;;;;;22.10;63.52;95928.41;5051645;28;20112;-77
2022/08/07 11:06:46;;;;;;;5.65;3.30;;;;;;;22.34;66.86;95948.34;5054744;28;20040;-77
2022/08/07 11:09:18;;;;;;;4.90;3.40;;;;;;;22.82;63.30;95930.66;5047452;28;20041;-77
2022/08/07 11:11:50;;;;;;;5.10;3.35;;;;;;;22.74;61.83;95928.88;5052133;28;20044;-77
2022/08/07 11:14:27;;;;;;;4.15;3.10;;;;;;;22.99;61.24;95930.41;5053913;28;20048;-77
2022/08/07 11:17:34;;;;;;;6.25;3.50;;;;;;;22.74;63.05;95927.00;5052087;28;20045;-77
2022/08/07 11:20:22;;;;;;;5.88;3.40;;;;;;;21.94;60.30;95942.47;5040648;28;20060;-78
2022/08/07 11:22:59;;;;;;;3.95;2.90;;;;;;;22.55;60.63;95930.22;5032684;28;20695;-77
2022/08/07 11:25:32;;;;;;;5.30;3.10;;;;;;;22.16;60.16;95929.75;5053492;28;20080;-77
2022/08/07 11:28:15;;;;;;;7.18;3.05;;;;;;;22.52;61.26;95920.19;5048947;28;20056;-77
2022/08/07 11:30:42;;;;;;;4.28;3.20;;;;;;;22.66;60.70;95920.63;5036445;28;20063;-78
2022/08/07 11:33:22;;;;;;;4.03;3.00;;;;;;;23.09;59.12;95914.97;5053670;28;20052;-77
2022/08/07 11:36:07;;;;;;;4.53;2.95;;;;;;;23.43;59.39;95916.31;5053090;28;20049;-77
2022/08/07 11:38:45;;;;;;;6.28;3.20;;;;;;;23.79;56.63;95914.56;5051224;28;20041;-77
2022/08/07 11:41:16;;;;;;;5.95;3.30;;;;;;;24.88;56.81;95915.22;5048744;28;20116;-77
2022/08/07 11:43:57;;;;;;;5.15;2.97;;;;;;;25.12;55.00;95902.63;5052223;28;20485;-78
2022/08/07 11:46:42;;;;;;;5.50;3.30;;;;;;;24.29;55.12;95915.03;5035309;28;20500;-78
2022/08/07 11:49:40;;;;;;;6.38;3.65;;;;;;;24.02;55.56;95904.03;5048260;28;20676;-78
2022/08/07 11:52:27;;;;;;;5.78;3.10;;;;;;;23.96;54.71;95899.25;5049797;28;20114;-78
2022/08/07 11:55:24;;;;;;;4.47;3.20;;;;;;;24.56;53.41;95899.88;5039392;28;20403;-78
2022/08/07 11:58:04;;;;;;;5.88;3.03;;;;;;;24.86;54.21;95895.94;5051928;28;20048;-78